Time;durP1;ratioP1;P1;durP2;ratioP2;P2;SDS_P1;SDS_P2;PMS_P1;PMS_P2;Temp;Humidity;BMP_temperature;BMP_pressure;BME280_temperature;BME280_humidity;BME280_pressure;Samples;Min_cycle;Max_cycle;Signal;HPM_P1;HPM_P2
2021/07/30 00:01:11;;;;;;;0.30;0.20;;;18.40;70.10;;;;;;5056171;28;20044;-79
2021/07/30 00:03:36;;;;;;;0.20;0.20;;;18.40;70.40;;;;;;5056612;28;20032;-79
2021/07/30 00:06:02;;;;;;;0.20;0.13;;;18.40;70.30;;;;;;5056429;28;20028;-79
2021/07/30 00:08:27;;;;;;;0.20;0.20;;;18.50;70.30;;;;;;5056432;28;20056;-80
2021/07/30 00:10:54;;;;;;;0.10;0.10;;;18.40;70.60;;;;;;5056920;28;20033;-79
2021/07/30 00:13:21;;;;;;;0.20;0.17;;;18.40;70.50;;;;;;5057715;28;20033;-79
2021/07/30 00:15:46;;;;;;;0.20;0.20;;;18.40;70.50;;;;;;5069823;28;20045;-79
2021/07/30 00:18:17;;;;;;;0.20;0.20;;;18.50;70.00;;;;;;5057507;28;20036;-79
2021/07/30 00:20:43;;;;;;;0.10;0.10;;;18.60;70.20;;;;;;5056251;28;20495;-79
2021/07/30 00:23:08;;;;;;;0.13;0.10;;;18.50;70.30;;;;;;5057444;28;20434;-79
2021/07/30 00:25:34;;;;;;;0.32;0.20;;;18.50;70.30;;;;;;5057387;28;20025;-79
2021/07/30 00:28:02;;;;;;;0.43;0.30;;;18.50;70.30;;;;;;5057257;28;20029;-80
2021/07/30 00:30:27;;;;;;;0.22;0.20;;;18.50;70.60;;;;;;5057576;28;20087;-80
2021/07/30 00:32:53;;;;;;;0.43;0.20;;;18.50;70.80;;;;;;5057188;28;20033;-80
2021/07/30 00:35:19;;;;;;;0.28;0.20;;;18.50;70.90;;;;;;5055889;28;20036;-80
2021/07/30 00:37:44;;;;;;;0.30;0.20;;;18.50;71.30;;;;;;5057265;28;20458;-79
2021/07/30 00:40:10;;;;;;;0.30;0.20;;;18.40;71.10;;;;;;5059110;28;20120;-80
2021/07/30 00:42:46;;;;;;;0.15;0.15;;;18.40;71.60;;;;;;5077129;28;20078;-79
2021/07/30 00:45:11;;;;;;;0.25;0.10;;;18.30;71.90;;;;;;5077051;28;20791;-79
2021/07/30 00:47:37;;;;;;;0.20;0.10;;;18.30;71.90;;;;;;5075596;28;20055;-80
2021/07/30 00:50:03;;;;;;;0.20;0.17;;;18.50;71.50;;;;;;5066191;28;20037;-80
2021/07/30 00:52:34;;;;;;;0.28;0.20;;;18.40;71.80;;;;;;5055681;28;20032;-79
2021/07/30 00:54:59;;;;;;;0.32;0.20;;;18.40;71.60;;;;;;5056851;28;20428;-80
2021/07/30 00:57:25;;;;;;;0.20;0.20;;;18.30;72.10;;;;;;5056507;28;20044;-79
2021/07/30 00:59:51;;;;;;;0.20;0.15;;;18.30;72.20;;;;;;5056656;28;20040;-79
2021/07/30 01:02:18;;;;;;;0.38;0.20;;;18.30;72.30;;;;;;5056565;28;20062;-80
2021/07/30 01:04:43;;;;;;;0.20;0.20;;;18.30;72.60;;;;;;5055516;28;20028;-80
2021/07/30 01:07:09;;;;;;;0.35;0.20;;;18.20;73.10;;;;;;5056539;28;20021;-80
2021/07/30 01:09:35;;;;;;;0.20;0.20;;;18.20;73.30;;;;;;5056525;28;20025;-80
2021/07/30 01:12:02;;;;;;;0.20;0.20;;;18.20;73.00;;;;;;5056522;28;20032;-79
2021/07/30 01:14:28;;;;;;;0.13;0.13;;;18.20;73.10;;;;;;5055529;28;20036;-80
2021/07/30 01:16:54;;;;;;;0.20;0.20;;;18.20;73.30;;;;;;5056365;28;20050;-79
2021/07/30 01:19:24;;;;;;;0.20;0.10;;;18.20;73.30;;;;;;5056224;28;20033;-80
2021/07/30 01:21:52;;;;;;;;;;;18.30;73.10;;;;;;5056815;28;20024;-80
2021/07/30 01:24:19;;;;;;;0.15;0.10;;;18.30;73.00;;;;;;5058717;28;19950;-80
2021/07/30 01:26:45;;;;;;;0.15;0.10;;;18.30;72.90;;;;;;5074846;28;20119;-80
2021/07/30 01:29:11;;;;;;;0.20;0.10;;;18.40;73.20;;;;;;5071714;28;20052;-81
2021/07/30 01:31:36;;;;;;;0.40;0.20;;;18.30;73.30;;;;;;5056149;28;20499;-79
2021/07/30 01:34:02;;;;;;;0.20;0.20;;;18.50;73.00;;;;;;5054571;28;20025;-80
2021/07/30 01:36:28;;;;;;;0.30;0.20;;;18.30;73.60;;;;;;5055900;28;20025;-79
2021/07/30 01:38:53;;;;;;;0.30;0.20;;;18.30;73.50;;;;;;5056094;28;20100;-80
2021/07/30 01:41:19;;;;;;;0.20;0.20;;;18.30;73.50;;;;;;5067526;28;20044;-80
2021/07/30 01:43:45;;;;;;;0.20;0.20;;;18.40;73.30;;;;;;5074409;28;20027;-80
2021/07/30 01:46:11;;;;;;;0.20;0.20;;;18.50;73.00;;;;;;5058812;28;20060;-80
2021/07/30 01:48:36;;;;;;;0.47;0.30;;;18.50;73.20;;;;;;5055730;28;20021;-80
2021/07/30 01:51:03;;;;;;;0.30;0.20;;;18.50;73.50;;;;;;5056007;28;20036;-79
2021/07/30 01:53:29;;;;;;;0.20;0.20;;;18.50;73.30;;;;;;5055617;28;20083;-79
2021/07/30 01:55:55;;;;;;;0.20;0.20;;;18.40;73.40;;;;;;5055708;28;20029;-80
2021/07/30 01:58:21;;;;;;;0.65;0.20;;;18.40;73.60;;;;;;5055617;28;20029;-80
2021/07/30 02:00:53;;;;;;;0.40;0.20;;;18.30;74.20;;;;;;5055656;28;20071;-80
2021/07/30 02:03:19;;;;;;;0.20;0.20;;;18.30;74.30;;;;;;5057989;28;20021;-80
2021/07/30 02:05:45;;;;;;;0.25;0.20;;;18.30;74.10;;;;;;5064336;28;20036;-80
2021/07/30 02:08:10;;;;;;;0.20;0.20;;;18.20;74.80;;;;;;5055287;28;20028;-79
2021/07/30 02:10:38;;;;;;;0.20;0.20;;;18.30;74.80;;;;;;5055640;28;20033;-80
2021/07/30 02:15:48;;;;;;;0.30;0.20;;;18.30;74.50;;;;;;5055341;28;20044;-80
2021/07/30 02:18:14;;;;;;;0.30;0.20;;;18.30;74.80;;;;;;5055416;28;20017;-79
2021/07/30 02:20:39;;;;;;;0.40;0.20;;;18.30;74.80;;;;;;5055226;28;20122;-80
2021/07/30 02:23:05;;;;;;;0.20;0.20;;;18.40;74.90;;;;;;5070517;28;20093;-80
2021/07/30 02:25:31;;;;;;;0.45;0.30;;;18.40;75.10;;;;;;5053786;28;20111;-80
2021/07/30 02:27:56;;;;;;;0.20;0.20;;;18.40;75.00;;;;;;5055240;28;20029;-80
2021/07/30 02:30:22;;;;;;;0.30;0.20;;;18.40;75.00;;;;;;5055111;28;20451;-80
2021/07/30 02:32:47;;;;;;;0.30;0.20;;;18.40;74.90;;;;;;5055020;28;21238;-80
2021/07/30 02:35:13;;;;;;;0.17;0.10;;;18.50;75.10;;;;;;5055276;28;20509;-80
2021/07/30 02:37:39;;;;;;;0.20;0.10;;;18.30;75.50;;;;;;5055157;28;20491;-80
2021/07/30 02:40:05;;;;;;;0.20;0.20;;;18.40;75.50;;;;;;5055121;28;20057;-80
2021/07/30 02:42:31;;;;;;;0.10;0.10;;;18.50;75.30;;;;;;5073741;28;20021;-80
2021/07/30 02:44:56;;;;;;;0.20;0.20;;;18.50;75.60;;;;;;5053794;28;20036;-80
2021/07/30 02:47:22;;;;;;;0.43;0.20;;;18.50;75.80;;;;;;5055070;28;20028;-80
2021/07/30 02:49:48;;;;;;;0.20;0.20;;;18.40;75.90;;;;;;5055247;28;20032;-79
2021/07/30 02:52:16;;;;;;;0.20;0.20;;;18.40;76.20;;;;;;5054825;28;20097;-80
2021/07/30 02:54:42;;;;;;;0.22;0.20;;;18.50;76.10;;;;;;5055046;28;20036;-80
2021/07/30 02:57:07;;;;;;;0.20;0.20;;;18.40;76.70;;;;;;5053603;28;20097;-80
2021/07/30 02:59:33;;;;;;;0.20;0.20;;;18.30;77.10;;;;;;5054896;28;20450;-80
2021/07/30 03:02:00;;;;;;;0.25;0.20;;;18.20;79.20;;;;;;5054887;28;20029;-80
2021/07/30 03:04:25;;;;;;;0.22;0.20;;;18.20;79.90;;;;;;5054703;28;20045;-80
2021/07/30 03:06:51;;;;;;;0.40;0.20;;;17.90;81.80;;;;;;5054957;28;20032;-80
2021/07/30 03:09:17;;;;;;;0.17;0.17;;;17.90;82.50;;;;;;5054967;28;20055;-80
2021/07/30 03:11:43;;;;;;;0.22;0.20;;;17.80;83.20;;;;;;5054722;28;20037;-80
2021/07/30 03:14:08;;;;;;;0.10;0.10;;;17.80;83.70;;;;;;5054885;28;20021;-80
2021/07/30 03:16:34;;;;;;;0.20;0.20;;;17.80;83.70;;;;;;5054683;28;20032;-80
2021/07/30 03:19:00;;;;;;;0.20;0.20;;;17.80;84.30;;;;;;5054920;28;20387;-80
2021/07/30 03:21:26;;;;;;;0.20;0.20;;;17.70;84.30;;;;;;5054856;28;20021;-81
2021/07/30 03:23:54;;;;;;;0.20;0.20;;;17.70;84.60;;;;;;5054653;28;20164;-80
2021/07/30 03:26:22;;;;;;;0.28;0.20;;;17.70;85.10;;;;;;5054731;28;20100;-80
2021/07/30 03:28:49;;;;;;;0.20;0.20;;;17.60;85.50;;;;;;5054898;28;20037;-81
2021/07/30 03:31:14;;;;;;;0.20;0.20;;;17.60;85.70;;;;;;5054790;28;20104;-80
2021/07/30 03:33:40;;;;;;;0.28;0.20;;;17.60;85.80;;;;;;5053451;28;20040;-80
2021/07/30 03:36:06;;;;;;;0.10;0.10;;;17.70;85.50;;;;;;5053028;28;20473;-80
2021/07/30 03:38:32;;;;;;;0.20;0.20;;;17.60;85.60;;;;;;5056375;28;20055;-80
2021/07/30 03:41:04;;;;;;;0.28;0.10;;;17.70;85.40;;;;;;5067085;28;20036;-79
2021/07/30 03:43:33;;;;;;;0.20;0.20;;;17.60;85.90;;;;;;5076964;28;20095;-79
2021/07/30 03:45:58;;;;;;;0.30;0.20;;;17.70;86.00;;;;;;5065264;28;20529;-79
2021/07/30 03:48:24;;;;;;;0.22;0.20;;;17.80;85.90;;;;;;5056618;28;20051;-80
2021/07/30 03:50:50;;;;;;;0.30;0.20;;;17.60;86.50;;;;;;5057871;28;20033;-80
2021/07/30 03:53:16;;;;;;;0.40;0.20;;;17.70;86.70;;;;;;5056635;28;20086;-80
2021/07/30 03:55:41;;;;;;;0.20;0.20;;;17.70;87.20;;;;;;5058108;28;20032;-80
2021/07/30 03:58:07;;;;;;;0.10;0.10;;;17.70;87.10;;;;;;5057922;28;20040;-80
2021/07/30 04:00:37;;;;;;;0.15;0.15;;;17.80;87.30;;;;;;5057634;28;20463;-79
2021/07/30 04:03:03;;;;;;;0.20;0.20;;;17.80;87.00;;;;;;5057836;28;20028;-80
2021/07/30 04:05:28;;;;;;;0.73;0.30;;;18.00;87.00;;;;;;5057869;28;20017;-79
2021/07/30 04:07:55;;;;;;;0.30;0.20;;;18.00;84.30;;;;;;5057796;28;20025;-79
2021/07/30 04:10:21;;;;;;;0.25;0.17;;;18.00;83.40;;;;;;5057524;28;20040;-79
2021/07/30 04:12:46;;;;;;;0.50;0.30;;;18.10;83.10;;;;;;5057721;28;20036;-79
2021/07/30 04:15:12;;;;;;;0.52;0.32;;;18.10;82.40;;;;;;5057632;28;20104;-79
2021/07/30 04:17:40;;;;;;;0.40;0.30;;;18.00;80.90;;;;;;5057388;28;20029;-79
2021/07/30 04:20:06;;;;;;;0.47;0.30;;;18.00;80.90;;;;;;5057534;28;20074;-79
2021/07/30 04:22:32;;;;;;;0.32;0.20;;;18.00;80.20;;;;;;5057378;28;20109;-79
2021/07/30 04:24:57;;;;;;;0.60;0.30;;;18.00;80.60;;;;;;5057285;28;20048;-80
2021/07/30 04:27:23;;;;;;;0.30;0.20;;;18.00;79.40;;;;;;5057479;28;20057;-79
2021/07/30 04:29:49;;;;;;;0.50;0.30;;;17.90;79.10;;;;;;5057553;28;20025;-79
2021/07/30 04:32:14;;;;;;;0.40;0.30;;;18.00;78.70;;;;;;5057477;28;20478;-79
2021/07/30 04:34:41;;;;;;;0.52;0.30;;;17.80;77.20;;;;;;5071412;28;20033;-79
2021/07/30 04:37:07;;;;;;;0.32;0.20;;;17.70;78.10;;;;;;5057254;28;20486;-79
2021/07/30 04:39:34;;;;;;;0.50;0.32;;;17.60;77.70;;;;;;5056988;28;20041;-79
2021/07/30 04:42:00;;;;;;;0.55;0.30;;;17.60;78.20;;;;;;5068746;28;20388;-79
2021/07/30 04:44:25;;;;;;;0.50;0.22;;;17.60;78.40;;;;;;5056943;28;20090;-79
2021/07/30 04:46:51;;;;;;;0.45;0.30;;;17.50;78.80;;;;;;5068621;28;20029;-79
2021/07/30 04:49:17;;;;;;;0.70;0.30;;;17.50;77.70;;;;;;5070524;28;20029;-78
2021/07/30 04:51:45;;;;;;;0.70;0.40;;;17.40;77.20;;;;;;5056740;28;20025;-79
2021/07/30 04:54:10;;;;;;;1.15;0.40;;;17.40;77.90;;;;;;5056088;28;20028;-78
2021/07/30 04:56:36;;;;;;;0.70;0.38;;;17.30;78.10;;;;;;5056032;28;20033;-80
2021/07/30 04:59:02;;;;;;;0.50;0.30;;;17.30;76.80;;;;;;5056785;28;20156;-81
2021/07/30 05:01:27;;;;;;;0.47;0.30;;;17.30;78.30;;;;;;5056277;28;20056;-81
2021/07/30 05:03:53;;;;;;;0.73;0.40;;;17.20;77.70;;;;;;5056461;28;20029;-78
2021/07/30 05:06:21;;;;;;;0.70;0.40;;;17.10;76.90;;;;;;5055974;28;20036;-80
2021/07/30 05:08:47;;;;;;;0.82;0.40;;;17.00;77.50;;;;;;5056034;28;20036;-79
2021/07/30 05:11:13;;;;;;;0.50;0.40;;;16.90;77.30;;;;;;5057118;28;20033;-80
2021/07/30 05:13:40;;;;;;;0.63;0.30;;;16.80;76.50;;;;;;5070044;28;20071;-81
2021/07/30 05:16:11;;;;;;;0.68;0.30;;;16.80;77.20;;;;;;5071605;28;20060;-81
2021/07/30 05:18:38;;;;;;;0.50;0.30;;;16.70;77.50;;;;;;5069443;28;20105;-81
2021/07/30 05:21:05;;;;;;;0.60;0.30;;;16.80;76.30;;;;;;5058881;28;20406;-89
2021/07/30 05:23:31;;;;;;;0.80;0.40;;;16.70;77.20;;;;;;5066737;28;20113;-83
2021/07/30 05:25:57;;;;;;;0.63;0.40;;;16.50;76.60;;;;;;5070723;28;20025;-80
2021/07/30 05:28:22;;;;;;;0.50;0.35;;;16.50;77.10;;;;;;5055548;28;20241;-81
2021/07/30 05:30:48;;;;;;;0.45;0.30;;;16.50;77.50;;;;;;5055612;28;20032;-81
2021/07/30 05:33:14;;;;;;;0.50;0.35;;;16.50;77.30;;;;;;5053752;28;20025;-82
2021/07/30 05:35:39;;;;;;;0.50;0.30;;;16.40;77.90;;;;;;5060507;28;20074;-81
2021/07/30 05:38:05;;;;;;;0.50;0.30;;;16.60;77.30;;;;;;5075903;28;20025;-81
2021/07/30 05:40:31;;;;;;;0.50;0.32;;;16.50;77.30;;;;;;5064013;28;20078;-82
2021/07/30 05:42:56;;;;;;;0.65;0.40;;;16.50;77.30;;;;;;5075840;28;20025;-79
2021/07/30 05:45:22;;;;;;;0.95;0.40;;;16.40;77.30;;;;;;5074024;28;20032;-81
2021/07/30 05:47:48;;;;;;;0.52;0.32;;;16.30;76.80;;;;;;5055914;28;20025;-81
2021/07/30 05:50:14;;;;;;;0.30;0.30;;;16.30;77.40;;;;;;5055599;28;20032;-81
2021/07/30 05:52:40;;;;;;;0.60;0.30;;;16.40;77.20;;;;;;5055305;28;20503;-80
2021/07/30 05:55:06;;;;;;;0.50;0.40;;;16.50;76.90;;;;;;5057695;28;20112;-80
2021/07/30 05:57:35;;;;;;;0.70;0.40;;;16.50;77.20;;;;;;5071627;28;20020;-80
2021/07/30 06:00:03;;;;;;;0.50;0.30;;;16.50;76.90;;;;;;5075076;28;20130;-80
2021/07/30 06:02:29;;;;;;;0.45;0.28;;;16.40;77.50;;;;;;5071907;28;20483;-80
2021/07/30 06:04:54;;;;;;;0.60;0.40;;;16.30;77.80;;;;;;5051040;28;20086;-79
2021/07/30 06:07:20;;;;;;;0.43;0.30;;;16.50;77.60;;;;;;5061145;28;20028;-79
2021/07/30 06:09:46;;;;;;;0.50;0.30;;;16.50;77.70;;;;;;5068477;28;20035;-80
2021/07/30 06:12:11;;;;;;;0.40;0.30;;;16.70;76.40;;;;;;5072740;28;20036;-79
2021/07/30 06:14:37;;;;;;;0.40;0.30;;;16.80;76.60;;;;;;5055276;28;20041;-80
2021/07/30 06:17:03;;;;;;;0.40;0.30;;;16.90;76.00;;;;;;5054936;28;20064;-80
2021/07/30 06:19:29;;;;;;;0.35;0.30;;;16.90;76.20;;;;;;5055273;28;20078;-80
2021/07/30 06:21:54;;;;;;;0.30;0.22;;;17.20;75.50;;;;;;5055041;28;20029;-80
2021/07/30 06:24:20;;;;;;;0.40;0.30;;;17.20;74.30;;;;;;5055089;28;20048;-80
2021/07/30 06:26:45;;;;;;;0.68;0.30;;;17.30;75.00;;;;;;5055030;28;20029;-81
2021/07/30 06:29:11;;;;;;;0.32;0.20;;;17.20;75.30;;;;;;5054961;28;20029;-80
2021/07/30 06:31:37;;;;;;;0.40;0.30;;;17.30;74.90;;;;;;5054942;28;20084;-80
2021/07/30 06:34:03;;;;;;;0.40;0.30;;;17.40;74.10;;;;;;5054924;28;20075;-80
2021/07/30 06:36:28;;;;;;;0.47;0.30;;;17.40;73.50;;;;;;5053625;28;20554;-80
2021/07/30 06:38:54;;;;;;;0.40;0.30;;;17.50;73.20;;;;;;5056737;28;20387;-80
2021/07/30 06:41:19;;;;;;;0.60;0.40;;;17.40;73.40;;;;;;5062610;28;20051;-81
2021/07/30 06:43:45;;;;;;;0.60;0.30;;;17.50;72.70;;;;;;5065450;28;20383;-80
2021/07/30 06:46:11;;;;;;;0.40;0.28;;;17.30;73.00;;;;;;5075006;28;20549;-80
2021/07/30 06:48:36;;;;;;;0.43;0.28;;;17.60;72.80;;;;;;5063430;28;20028;-80
2021/07/30 06:51:02;;;;;;;0.60;0.32;;;17.80;72.20;;;;;;5053430;28;20071;-79
2021/07/30 06:53:28;;;;;;;0.63;0.30;;;17.80;71.40;;;;;;5053212;28;20036;-79
2021/07/30 06:55:54;;;;;;;0.55;0.30;;;17.80;71.20;;;;;;5054475;28;20039;-80
2021/07/30 06:58:20;;;;;;;0.40;0.30;;;18.00;71.60;;;;;;5055159;28;20075;-79
2021/07/30 07:00:45;;;;;;;0.30;0.28;;;17.90;72.00;;;;;;5054687;28;20430;-79
2021/07/30 07:03:11;;;;;;;0.30;0.20;;;17.90;71.10;;;;;;5056346;28;20568;-80
2021/07/30 07:05:36;;;;;;;0.45;0.30;;;17.90;70.90;;;;;;5054522;28;20052;-80
2021/07/30 07:08:02;;;;;;;0.52;0.30;;;17.80;71.50;;;;;;5069370;28;20029;-80
2021/07/30 07:10:28;;;;;;;0.52;0.30;;;17.80;71.50;;;;;;5070492;28;20398;-79
2021/07/30 07:12:53;;;;;;;0.43;0.30;;;18.00;70.80;;;;;;5075105;28;20039;-80
2021/07/30 07:15:19;;;;;;;0.45;0.22;;;17.90;70.70;;;;;;5078568;28;20028;-79
2021/07/30 07:17:45;;;;;;;0.50;0.30;;;18.00;69.80;;;;;;5059754;28;20029;-79
2021/07/30 07:20:10;;;;;;;0.60;0.40;;;18.10;70.10;;;;;;5056870;28;20029;-80
2021/07/30 07:22:36;;;;;;;0.52;0.32;;;18.80;68.60;;;;;;5058455;28;20035;-80
2021/07/30 07:25:02;;;;;;;0.50;0.30;;;20.80;63.00;;;;;;5058263;28;20025;-80
2021/07/30 07:27:28;;;;;;;0.30;0.20;;;22.80;55.30;;;;;;5058359;28;20052;-80
2021/07/30 07:29:54;;;;;;;0.50;0.20;;;24.80;50.80;;;;;;5058284;28;20033;-81
2021/07/30 07:32:19;;;;;;;0.38;0.20;;;26.30;45.60;;;;;;5057698;28;20043;-81
2021/07/30 07:34:45;;;;;;;0.43;0.28;;;27.50;41.20;;;;;;5057323;28;20028;-81
2021/07/30 07:37:10;;;;;;;0.20;0.10;;;28.80;38.80;;;;;;5057011;28;20052;-81
2021/07/30 07:39:36;;;;;;;0.20;0.10;;;28.70;37.40;;;;;;5058220;28;20277;-81
2021/07/30 07:42:02;;;;;;;0.35;0.20;;;29.50;37.80;;;;;;5075939;28;20036;-81
2021/07/30 07:44:28;;;;;;;0.32;0.13;;;29.70;35.70;;;;;;5077530;28;20067;-81
2021/07/30 07:46:55;;;;;;;0.30;0.20;;;30.00;36.30;;;;;;5074386;28;20036;-81
2021/07/30 07:49:20;;;;;;;0.15;0.10;;;29.60;36.30;;;;;;5061420;28;20025;-81
2021/07/30 07:51:46;;;;;;;0.20;0.13;;;30.00;35.40;;;;;;5068934;28;20510;-81
2021/07/30 07:54:11;;;;;;;0.20;0.10;;;31.10;35.40;;;;;;5076560;28;20025;-81
2021/07/30 07:56:37;;;;;;;0.20;0.10;;;30.30;34.90;;;;;;5072070;28;20395;-81
2021/07/30 07:59:03;;;;;;;0.20;0.10;;;29.90;35.10;;;;;;5057885;28;20024;-81
2021/07/30 08:01:28;;;;;;;0.28;0.13;;;29.00;35.40;;;;;;5057807;28;20060;-81
2021/07/30 08:03:54;;;;;;;0.17;0.10;;;30.60;34.20;;;;;;5057812;28;20059;-81
2021/07/30 08:06:21;;;;;;;0.20;0.10;;;31.10;33.90;;;;;;5057496;28;20496;-81
2021/07/30 08:08:48;;;;;;;0.35;0.15;;;31.10;32.80;;;;;;5056286;28;20048;-82
2021/07/30 08:11:15;;;;;;;0.20;0.10;;;31.40;31.60;;;;;;5057363;28;20063;-81
2021/07/30 08:13:41;;;;;;;0.30;0.10;;;31.20;31.60;;;;;;5057645;28;20029;-81
2021/07/30 08:16:08;;;;;;;0.20;0.10;;;32.40;32.10;;;;;;5061699;28;20036;-82
2021/07/30 08:18:35;;;;;;;0.32;0.10;;;32.30;30.10;;;;;;5057346;28;20021;-80
2021/07/30 08:21:01;;;;;;;0.25;0.20;;;31.10;32.20;;;;;;5057729;28;20040;-81
2021/07/30 08:23:28;;;;;;;0.30;0.10;;;31.40;32.20;;;;;;5056854;28;20482;-81
2021/07/30 08:25:53;;;;;;;0.25;0.20;;;31.80;32.50;;;;;;5057427;28;20168;-80
2021/07/30 08:28:19;;;;;;;0.20;0.10;;;29.90;35.10;;;;;;5057365;28;20064;-80
2021/07/30 08:30:45;;;;;;;0.10;0.00;;;31.00;34.30;;;;;;5055957;28;20078;-80
2021/07/30 08:33:10;;;;;;;0.40;0.10;;;30.70;34.50;;;;;;5056918;28;20025;-81
2021/07/30 08:35:36;;;;;;;0.20;0.10;;;29.50;35.40;;;;;;5055814;28;20415;-81
2021/07/30 08:38:02;;;;;;;0.22;0.10;;;30.50;34.80;;;;;;5057283;28;20025;-81
2021/07/30 08:40:32;;;;;;;0.10;0.10;;;31.10;33.80;;;;;;5061862;28;20147;-80
2021/07/30 08:42:58;;;;;;;0.08;0.08;;;31.40;33.00;;;;;;5062771;28;20525;-81
2021/07/30 08:45:24;;;;;;;0.10;0.00;;;30.80;33.40;;;;;;5057051;28;20033;-81
2021/07/30 08:47:51;;;;;;;0.10;0.00;;;30.90;33.90;;;;;;5057029;28;20497;-78
2021/07/30 08:50:17;;;;;;;0.20;0.10;;;30.80;33.90;;;;;;5056663;28;20032;-79
2021/07/30 08:52:44;;;;;;;0.20;0.10;;;30.70;34.20;;;;;;5056775;28;20025;-77
2021/07/30 08:55:15;;;;;;;0.28;0.10;;;31.70;32.80;;;;;;5056499;28;20037;-81
2021/07/30 08:57:44;;;;;;;0.28;0.10;;;30.80;32.50;;;;;;5056767;28;20394;-80
2021/07/30 09:00:15;;;;;;;0.10;0.00;;;31.30;32.60;;;;;;5056521;28;20122;-80
2021/07/30 09:02:41;;;;;;;0.13;0.00;;;30.10;34.40;;;;;;5085784;28;20016;-80
2021/07/30 09:05:27;;;;;;;0.10;0.00;;;28.10;37.00;;;;;;5096188;28;20020;-80
2021/07/30 09:07:53;;;;;;;0.10;0.00;;;27.90;37.30;;;;;;5090424;28;20021;-79
2021/07/30 09:10:40;;;;;;;0.10;0.10;;;26.70;39.70;;;;;;5056514;28;20037;-79
2021/07/30 09:13:20;;;;;;;0.20;0.10;;;27.00;39.60;;;;;;5055306;28;20033;-80
2021/07/30 09:16:08;;;;;;;0.20;0.10;;;27.20;39.70;;;;;;5055167;28;20058;-80
2021/07/30 09:18:38;;;;;;;;;;;29.10;37.00;;;;;;5063960;28;20058;-80
2021/07/30 09:21:24;;;;;;;0.30;0.10;;;30.90;34.00;;;;;;5055539;28;20294;-80
2021/07/30 09:23:57;;;;;;;0.30;0.20;;;31.20;34.20;;;;;;5056116;28;20498;-80
2021/07/30 09:26:33;;;;;;;0.20;0.20;;;30.90;32.70;;;;;;5054582;28;20021;-80
2021/07/30 09:29:01;;;;;;;0.10;0.10;;;31.40;32.90;;;;;;5075734;28;20024;-80
2021/07/30 09:31:54;;;;;;;0.22;0.10;;;31.30;32.70;;;;;;5076114;28;20017;-80
2021/07/30 09:34:34;;;;;;;0.10;0.10;;;31.30;33.10;;;;;;5069913;28;20090;-80
2021/07/30 09:37:07;;;;;;;0.10;0.10;;;32.00;31.80;;;;;;5054436;28;20104;-80
2021/07/30 09:39:32;;;;;;;0.20;0.10;;;32.50;30.10;;;;;;5055490;28;20107;-80
2021/07/30 09:42:05;;;;;;;0.10;0.00;;;31.50;31.90;;;;;;5067815;28;20091;-80
2021/07/30 09:44:36;;;;;;;0.10;0.00;;;31.60;31.90;;;;;;5055660;28;20850;-79
2021/07/30 09:47:10;;;;;;;0.10;0.00;;;29.80;34.80;;;;;;5054327;28;20025;-79
2021/07/30 09:49:36;;;;;;;0.20;0.00;;;28.70;36.30;;;;;;5055537;28;20406;-80
2021/07/30 09:52:03;;;;;;;0.25;0.10;;;27.30;38.30;;;;;;5053999;28;20127;-80
2021/07/30 09:54:31;;;;;;;0.10;0.10;;;27.00;39.60;;;;;;5054248;28;20036;-80
2021/07/30 09:56:58;;;;;;;0.10;0.05;;;26.70;39.40;;;;;;5055616;28;20051;-80
2021/07/30 09:59:25;;;;;;;0.10;0.10;;;27.00;39.10;;;;;;5054160;28;20507;-80
2021/07/30 10:01:51;;;;;;;0.10;0.00;;;27.00;39.30;;;;;;5055206;28;20487;-79
2021/07/30 10:04:22;;;;;;;0.10;0.10;;;26.60;40.20;;;;;;5055093;28;20040;-80
2021/07/30 10:06:47;;;;;;;0.10;0.03;;;26.30;41.80;;;;;;5054762;28;20489;-80
2021/07/30 10:09:14;;;;;;;0.10;0.03;;;26.00;43.30;;;;;;5053960;28;20368;-79
2021/07/30 10:11:40;;;;;;;0.10;0.00;;;25.70;43.50;;;;;;5053453;28;20088;-80
2021/07/30 10:14:06;;;;;;;0.10;0.10;;;24.90;44.60;;;;;;5054942;28;20529;-80
2021/07/30 10:16:35;;;;;;;0.17;0.10;;;24.60;45.60;;;;;;5054930;28;20033;-80
2021/07/30 10:19:01;;;;;;;;;;;24.40;46.50;;;;;;5055297;28;20024;-80
2021/07/30 10:21:28;;;;;;;0.22;0.10;;;24.40;46.90;;;;;;5055202;28;19970;-80
2021/07/30 10:23:54;;;;;;;0.17;0.10;;;24.20;47.10;;;;;;5055201;28;20497;-80
2021/07/30 10:26:26;;;;;;;0.38;0.10;;;23.80;48.00;;;;;;5054850;28;20095;-79
2021/07/30 10:28:57;;;;;;;0.20;0.10;;;24.20;47.50;;;;;;5054716;28;20027;-80
2021/07/30 10:31:47;;;;;;;0.13;0.10;;;24.70;47.40;;;;;;5054006;28;20029;-80
2021/07/30 10:34:13;;;;;;;0.10;0.10;;;25.80;46.50;;;;;;5054502;28;20029;-80
2021/07/30 10:36:39;;;;;;;0.10;0.10;;;25.30;45.20;;;;;;5053782;28;20543;-83
2021/07/30 10:39:11;;;;;;;0.20;0.10;;;25.60;44.70;;;;;;5054705;28;20075;-81
2021/07/30 10:41:40;;;;;;;0.20;0.08;;;25.50;45.20;;;;;;5069202;28;20021;-83
2021/07/30 10:44:07;;;;;;;0.17;0.10;;;25.70;45.20;;;;;;5058910;28;20064;-79
2021/07/30 10:46:33;;;;;;;0.17;0.10;;;25.20;44.70;;;;;;5059884;28;20047;-81
2021/07/30 10:48:59;;;;;;;0.20;0.10;;;25.00;45.40;;;;;;5058532;28;20025;-81
2021/07/30 10:51:29;;;;;;;0.10;0.10;;;25.00;45.10;;;;;;5059054;28;20036;-83
2021/07/30 10:54:05;;;;;;;0.28;0.10;;;25.20;45.20;;;;;;5058779;28;20029;-84
2021/07/30 10:56:31;;;;;;;0.10;0.10;;;25.10;45.50;;;;;;5058507;28;20426;-84
2021/07/30 10:59:00;;;;;;;0.30;0.10;;;25.30;45.10;;;;;;5058871;28;20033;-83
2021/07/30 11:01:29;;;;;;;0.10;0.10;;;25.10;45.10;;;;;;5074384;28;20031;-81
2021/07/30 11:04:04;;;;;;;0.22;0.10;;;24.90;45.60;;;;;;5058695;28;20021;-81
2021/07/30 11:06:39;;;;;;;0.13;0.10;;;24.60;45.80;;;;;;5058293;28;20023;-81
2021/07/30 11:09:05;;;;;;;0.20;0.10;;;24.70;47.10;;;;;;5059167;28;20056;-78
2021/07/30 11:11:45;;;;;;;0.10;0.10;;;24.40;46.00;;;;;;5058690;28;20021;-79
2021/07/30 11:14:14;;;;;;;0.10;0.00;;;24.30;47.90;;;;;;5058640;28;20041;-79
2021/07/30 11:16:40;;;;;;;0.20;0.10;;;24.10;47.20;;;;;;5057007;28;20071;-78
2021/07/30 11:19:06;;;;;;;0.17;0.10;;;23.60;48.40;;;;;;5078147;28;20372;-79
2021/07/30 11:21:32;;;;;;;0.20;0.10;;;23.70;47.90;;;;;;5078328;28;20097;-79
2021/07/30 11:23:59;;;;;;;0.10;0.10;;;23.70;48.20;;;;;;5078545;28;20388;-78
2021/07/30 11:26:25;;;;;;;0.00;0.00;;;23.90;47.00;;;;;;5067770;28;20080;-79
2021/07/30 11:29:00;;;;;;;0.00;0.00;;;23.70;46.70;;;;;;5058563;28;20472;-78
2021/07/30 11:31:26;;;;;;;0.08;0.08;;;23.60;47.70;;;;;;5057024;28;20033;-78
2021/07/30 11:33:55;;;;;;;0.30;0.10;;;23.50;48.40;;;;;;5058394;28;20033;-78
2021/07/30 11:36:21;;;;;;;0.05;0.05;;;23.60;50.00;;;;;;5057475;28;20037;-79
2021/07/30 11:38:50;;;;;;;0.00;0.00;;;23.70;49.80;;;;;;5058172;28;20033;-79
2021/07/30 11:41:16;;;;;;;0.10;0.10;;;23.80;50.00;;;;;;5068902;28;20048;-78
2021/07/30 11:44:00;;;;;;;0.10;0.10;;;23.90;52.40;;;;;;5076652;28;20802;-79
2021/07/30 11:46:27;;;;;;;0.00;0.00;;;23.90;52.20;;;;;;5078003;28;20027;-79
2021/07/30 11:48:53;;;;;;;0.00;0.00;;;24.10;50.50;;;;;;5077871;28;20020;-79
2021/07/30 11:51:21;;;;;;;0.00;0.00;;;24.30;49.50;;;;;;5075210;28;20775;-79
2021/07/30 11:53:48;;;;;;;0.10;0.10;;;24.10;47.20;;;;;;5056668;28;20029;-78
2021/07/30 11:56:17;;;;;;;0.10;0.10;;;24.00;47.40;;;;;;5070793;28;20031;-78
2021/07/30 11:59:03;;;;;;;0.10;0.03;;;23.60;48.80;;;;;;5055788;28;20025;-78
2021/07/30 12:01:32;;;;;;;0.00;0.00;;;23.40;46.50;;;;;;5057605;28;20039;-78
2021/07/30 12:04:24;;;;;;;0.00;0.00;;;23.30;49.50;;;;;;5057628;28;20021;-78
2021/07/30 12:06:54;;;;;;;0.10;0.10;;;23.70;50.10;;;;;;5055739;28;20346;-78
2021/07/30 12:09:20;;;;;;;0.00;0.00;;;23.60;47.30;;;;;;5057483;28;20085;-78
2021/07/30 12:11:54;;;;;;;0.10;0.10;;;23.50;49.20;;;;;;5056542;28;20032;-78
2021/07/30 12:14:25;;;;;;;0.10;0.10;;;23.80;49.20;;;;;;5057214;28;20112;-78
2021/07/30 12:16:53;;;;;;;0.10;0.10;;;23.60;49.30;;;;;;5057222;28;20039;-78
2021/07/30 12:19:35;;;;;;;0.20;0.10;;;23.70;49.10;;;;;;5057087;28;20025;-78
2021/07/30 12:22:03;;;;;;;0.20;0.10;;;23.90;48.20;;;;;;5057551;28;20021;-78
2021/07/30 12:24:30;;;;;;;0.15;0.10;;;23.90;49.60;;;;;;5057343;28;20025;-78
2021/07/30 12:26:56;;;;;;;0.10;0.10;;;24.10;48.20;;;;;;5057226;28;20021;-78
2021/07/30 12:29:42;;;;;;;0.17;0.10;;;24.60;48.60;;;;;;5071273;28;20150;-78
2021/07/30 12:32:15;;;;;;;0.03;0.00;;;24.50;47.20;;;;;;5057344;28;20025;-79
2021/07/30 12:35:05;;;;;;;0.00;0.00;;;24.70;47.50;;;;;;5056833;28;20437;-77
2021/07/30 12:37:32;;;;;;;0.10;0.05;;;24.70;46.70;;;;;;5055577;28;20025;-79
2021/07/30 12:40:07;;;;;;;0.10;0.10;;;25.00;47.20;;;;;;5076475;28;20048;-79
2021/07/30 12:42:34;;;;;;;0.00;0.00;;;25.00;46.80;;;;;;5075393;28;20100;-78
2021/07/30 12:45:03;;;;;;;0.13;0.10;;;24.80;46.70;;;;;;5076905;28;20020;-79
2021/07/30 12:47:29;;;;;;;0.10;0.10;;;24.80;47.20;;;;;;5076783;28;20024;-79
2021/07/30 12:49:55;;;;;;;0.13;0.10;;;24.50;46.80;;;;;;5069552;28;20041;-79
2021/07/30 12:52:21;;;;;;;0.10;0.10;;;24.30;46.00;;;;;;5056754;28;20114;-78